createdAt,value
2022-12-19T00:01:57.376Z,72.80
2022-12-19T00:04:25.953Z,72.80
2022-12-19T00:06:54.053Z,73.20
2022-12-19T00:09:21.731Z,72.80
2022-12-19T00:11:49.392Z,72.60
2022-12-19T00:14:17.555Z,72.50
2022-12-19T00:16:45.265Z,72.30
2022-12-19T00:19:13.620Z,72.10
2022-12-19T00:21:41.442Z,72.30
2022-12-19T00:24:15.794Z,72.10
2022-12-19T00:26:49.468Z,72.60
2022-12-19T00:29:17.295Z,72.70
2022-12-19T00:31:45.081Z,72.40
2022-12-19T00:34:15.819Z,72.20
2022-12-19T00:36:43.410Z,72.20
2022-12-19T00:39:12.681Z,72.00
2022-12-19T00:41:42.073Z,72.00
2022-12-19T00:44:11.642Z,71.90
2022-12-19T00:46:39.750Z,71.10
2022-12-19T00:49:07.873Z,71.10
2022-12-19T00:51:36.973Z,70.30
2022-12-19T00:54:07.278Z,70.20
2022-12-19T00:56:37.502Z,69.30
2022-12-19T00:59:06.523Z,69.80
2022-12-19T01:01:36.737Z,70.20
2022-12-19T01:04:27.763Z,69.60
2022-12-19T01:06:52.925Z,68.50
2022-12-19T01:09:21.992Z,69.00
2022-12-19T01:12:12.702Z,69.20
2022-12-19T01:17:43.632Z,68.80
2022-12-19T01:20:13.680Z,68.60
2022-12-19T01:22:41.235Z,68.50
2022-12-19T01:25:09.370Z,68.40
2022-12-19T01:27:37.066Z,67.10
2022-12-19T01:30:05.683Z,67.40
2022-12-19T01:32:36.669Z,65.80
2022-12-19T01:35:05.501Z,67.60
2022-12-19T01:37:33.042Z,67.50
2022-12-19T01:40:02.450Z,67.20
2022-12-19T01:42:35.049Z,66.30
2022-12-19T01:45:08.199Z,65.90
2022-12-19T01:47:48.723Z,66.40
2022-12-19T01:50:26.765Z,65.90
2022-12-19T01:52:54.703Z,66.10
2022-12-19T01:55:22.477Z,66.50
2022-12-19T01:57:50.233Z,66.20
2022-12-19T02:00:17.866Z,65.70
2022-12-19T02:03:08.073Z,64.70
2022-12-19T02:05:39.579Z,65.40
2022-12-19T02:08:08.574Z,65.90
2022-12-19T02:10:36.218Z,65.30
2022-12-19T02:13:03.966Z,65.70
2022-12-19T02:15:33.831Z,65.20
2022-12-19T02:18:04.446Z,63.00
2022-12-19T02:20:55.219Z,63.60
2022-12-19T02:23:50.775Z,64.20
2022-12-19T02:26:37.848Z,65.00
2022-12-19T02:29:05.407Z,64.60
2022-12-19T02:31:57.032Z,64.60
2022-12-19T02:34:44.721Z,64.20
2022-12-19T02:37:32.519Z,63.70
2022-12-19T02:40:09.365Z,64.80
2022-12-19T02:42:39.958Z,64.60
2022-12-19T02:45:10.598Z,63.50
2022-12-19T02:47:38.996Z,64.30
2022-12-19T02:50:07.901Z,64.70
2022-12-19T02:52:36.373Z,64.60
2022-12-19T02:55:07.162Z,64.00
2022-12-19T02:57:40.667Z,60.40
2022-12-19T03:00:14.903Z,63.50
2022-12-19T03:03:00.608Z,64.00
2022-12-19T03:05:38.141Z,62.30
2022-12-19T03:08:12.760Z,63.70
2022-12-19T03:10:47.327Z,63.80
2022-12-19T03:13:35.026Z,64.00
2022-12-19T03:16:03.965Z,63.70
2022-12-19T03:18:33.021Z,62.80
2022-12-19T03:21:04.864Z,62.20
2022-12-19T03:23:33.215Z,60.70
2022-12-19T03:26:07.802Z,60.80
2022-12-19T03:28:42.084Z,61.70
2022-12-19T03:31:11.739Z,62.10
2022-12-19T03:33:41.318Z,61.40
2022-12-19T03:36:12.670Z,60.80
2022-12-19T03:38:41.111Z,60.20
2022-12-19T03:41:12.765Z,61.50
2022-12-19T03:43:41.871Z,60.30
2022-12-19T03:46:28.369Z,60.60
2022-12-19T03:48:57.049Z,60.80
2022-12-19T03:51:27.643Z,60.30
2022-12-19T03:54:02.911Z,59.80
2022-12-19T03:56:43.868Z,61.00
2022-12-19T03:59:22.917Z,59.80
2022-12-19T04:01:50.758Z,60.00
2022-12-19T04:04:18.917Z,59.80
2022-12-19T04:06:47.502Z,60.20
2022-12-19T04:09:20.735Z,60.50
2022-12-19T04:11:54.954Z,61.10
2022-12-19T04:14:36.625Z,60.80
2022-12-19T04:17:13.298Z,59.10
2022-12-19T04:19:55.884Z,56.40
2022-12-19T04:22:31.525Z,57.80
2022-12-19T04:24:59.958Z,57.30
2022-12-19T04:27:34.828Z,59.10
2022-12-19T04:30:03.015Z,59.60
2022-12-19T04:32:34.165Z,57.40
2022-12-19T04:35:03.319Z,56.20
2022-12-19T04:37:32.222Z,57.20
2022-12-19T04:40:00.136Z,55.20
2022-12-19T04:42:27.816Z,54.10
2022-12-19T04:44:55.823Z,55.30
2022-12-19T04:47:24.021Z,55.60
2022-12-19T04:49:51.693Z,54.80
2022-12-19T04:52:19.344Z,57.70
2022-12-19T04:54:46.952Z,57.90
2022-12-19T04:57:14.617Z,58.00
2022-12-19T04:59:42.260Z,58.50
2022-12-19T05:02:10.074Z,58.50
2022-12-19T05:04:37.769Z,57.00
2022-12-19T05:07:05.333Z,56.60
2022-12-19T05:09:34.143Z,56.00
2022-12-19T05:12:01.827Z,57.20
2022-12-19T05:14:31.191Z,55.80
2022-12-19T05:17:01.658Z,57.60
2022-12-19T05:19:30.517Z,56.50
2022-12-19T05:22:00.005Z,57.90
2022-12-19T05:24:30.267Z,57.70
2022-12-19T05:29:39.386Z,57.50
2022-12-19T05:32:07.568Z,58.10
2022-12-19T05:34:35.280Z,57.80
2022-12-19T05:37:05.890Z,54.70
2022-12-19T05:39:37.462Z,57.60
2022-12-19T05:42:08.482Z,56.00
2022-12-19T05:44:41.654Z,56.00
2022-12-19T05:47:10.340Z,56.80
2022-12-19T05:49:38.022Z,57.20
2022-12-19T05:52:06.485Z,56.70
2022-12-19T05:54:34.737Z,56.40
2022-12-19T05:57:02.661Z,56.50
2022-12-19T05:59:31.036Z,57.40
2022-12-19T06:01:58.842Z,55.70
2022-12-19T06:04:27.833Z,57.70
2022-12-19T06:06:56.539Z,57.90
2022-12-19T06:09:31.121Z,57.80
2022-12-19T06:12:00.981Z,56.30
2022-12-19T06:14:31.775Z,57.90
2022-12-19T06:16:59.499Z,54.80
2022-12-19T06:19:27.404Z,56.40
2022-12-19T06:21:55.802Z,55.40
2022-12-19T06:24:24.988Z,55.20
2022-12-19T06:26:55.511Z,55.90
2022-12-19T06:29:23.263Z,55.70
2022-12-19T06:32:00.406Z,55.90
2022-12-19T06:35:02.202Z,56.10
2022-12-19T06:37:19.267Z,56.90
2022-12-19T06:39:49.805Z,57.20
2022-12-19T06:42:41.874Z,56.80
2022-12-19T06:45:09.765Z,57.50
2022-12-19T06:47:37.478Z,57.40
2022-12-19T06:50:11.581Z,56.60
2022-12-19T06:52:59.209Z,56.10
2022-12-19T06:55:27.148Z,55.60
2022-12-19T06:57:55.659Z,57.00
2022-12-19T07:00:24.204Z,55.70
2022-12-19T07:02:55.020Z,55.90
2022-12-19T07:05:25.882Z,56.40
2022-12-19T07:07:54.264Z,57.10
2022-12-19T07:10:23.793Z,57.20
2022-12-19T07:12:51.476Z,56.70
2022-12-19T07:15:20.989Z,56.70
2022-12-19T07:17:48.976Z,57.40
2022-12-19T07:20:21.891Z,56.70
2022-12-19T07:22:53.541Z,57.40
2022-12-19T07:25:21.283Z,56.80
2022-12-19T07:27:49.715Z,56.90
2022-12-19T07:30:24.279Z,57.10
2022-12-19T07:32:58.011Z,58.20
2022-12-19T07:35:26.969Z,57.80
2022-12-19T07:38:07.656Z,57.30
2022-12-19T07:40:36.184Z,57.30
2022-12-19T07:43:14.067Z,57.60
2022-12-19T07:45:44.953Z,57.80
2022-12-19T07:48:13.467Z,57.20
2022-12-19T07:50:42.668Z,58.00
2022-12-19T07:53:10.281Z,57.30
2022-12-19T07:55:40.357Z,56.90
2022-12-19T07:58:10.695Z,56.60
2022-12-19T08:00:42.146Z,56.10
2022-12-19T08:03:11.798Z,55.40
2022-12-19T08:05:39.759Z,55.40
2022-12-19T08:08:09.167Z,55.60
2022-12-19T08:10:44.897Z,55.40
2022-12-19T08:13:14.827Z,56.90
2022-12-19T08:15:45.742Z,57.30
2022-12-19T08:18:19.881Z,57.10
2022-12-19T08:20:56.255Z,56.90
2022-12-19T08:23:25.707Z,57.10
2022-12-19T08:26:08.716Z,56.30
2022-12-19T08:31:21.493Z,57.80
2022-12-19T08:33:52.416Z,57.00
2022-12-19T08:36:25.597Z,57.30
2022-12-19T08:41:43.721Z,57.40
2022-12-19T08:47:00.802Z,57.80
2022-12-19T08:49:33.685Z,56.90
2022-12-19T08:54:46.002Z,58.20
2022-12-19T08:57:13.937Z,57.80
2022-12-19T08:59:42.230Z,57.70
2022-12-19T09:02:12.511Z,57.80
2022-12-19T09:05:59.701Z,56.80
2022-12-19T09:07:45.210Z,58.20
2022-12-19T09:10:14.044Z,57.70
2022-12-19T09:12:43.776Z,56.40
2022-12-19T09:15:14.159Z,57.40
2022-12-19T09:17:41.909Z,56.50
2022-12-19T09:20:19.554Z,57.40
2022-12-19T09:22:50.615Z,57.30
2022-12-19T09:25:18.982Z,57.60
2022-12-19T09:28:17.918Z,57.90
2022-12-19T09:30:37.352Z,58.00
2022-12-19T09:33:06.969Z,58.20
2022-12-19T09:35:43.485Z,57.60
2022-12-19T09:38:13.407Z,57.40
2022-12-19T09:40:56.344Z,59.10
2022-12-19T09:43:23.868Z,58.50
2022-12-19T09:45:54.995Z,57.90
2022-12-19T09:48:24.481Z,57.60
2022-12-19T09:50:58.572Z,57.80
2022-12-19T09:53:57.236Z,57.30
2022-12-19T09:56:30.081Z,57.20
2022-12-19T09:59:13.505Z,58.20
2022-12-19T10:01:51.214Z,58.00
2022-12-19T10:04:19.553Z,57.80
2022-12-19T10:11:51.482Z,58.40
2022-12-19T10:12:39.584Z,58.70
2022-12-19T10:15:19.569Z,58.20
2022-12-19T10:18:09.967Z,58.50
2022-12-19T10:20:41.160Z,58.50
2022-12-19T10:23:10.274Z,58.50
2022-12-19T10:25:51.053Z,57.50
2022-12-19T10:28:21.960Z,57.70
2022-12-19T10:31:21.066Z,58.00
2022-12-19T10:33:52.983Z,58.30
2022-12-19T10:36:20.620Z,58.50
2022-12-19T10:38:55.348Z,58.50
2022-12-19T10:41:24.739Z,58.70
2022-12-19T10:44:03.578Z,58.70
2022-12-19T10:46:38.328Z,58.90
2022-12-19T10:49:23.206Z,58.90
2022-12-19T10:51:57.195Z,59.10
2022-12-19T10:54:33.441Z,59.10
2022-12-19T10:57:19.973Z,59.20
2022-12-19T11:00:05.143Z,59.30
2022-12-19T11:02:40.360Z,59.20
2022-12-19T11:05:23.809Z,59.30
2022-12-19T11:08:07.610Z,59.40
2022-12-19T11:11:57.985Z,59.60
2022-12-19T11:18:15.264Z,59.50
2022-12-19T11:19:56.583Z,59.70
2022-12-19T11:29:17.391Z,59.80
2022-12-19T11:30:37.379Z,59.90
2022-12-19T11:30:37.868Z,60.30
2022-12-19T11:30:46.602Z,60.00
2022-12-19T11:34:04.857Z,60.50
2022-12-19T11:36:42.680Z,60.70
2022-12-19T11:39:15.875Z,60.90
2022-12-19T11:41:50.389Z,61.00
2022-12-19T11:44:27.586Z,61.10
2022-12-19T11:47:13.655Z,61.10
2022-12-19T11:49:52.765Z,61.20
2022-12-19T11:55:47.605Z,61.30
2022-12-19T11:58:15.977Z,61.30
2022-12-19T12:01:06.580Z,61.40
2022-12-19T12:03:40.179Z,61.30
2022-12-19T12:06:16.867Z,61.30
2022-12-19T12:09:56.062Z,60.90
2022-12-19T12:22:00.165Z,61.30
2022-12-19T12:23:30.924Z,61.30
2022-12-19T12:31:11.703Z,61.30
2022-12-19T12:31:28.654Z,61.10
2022-12-19T12:31:30.963Z,61.20
2022-12-19T12:31:49.077Z,61.20
2022-12-19T12:31:52.735Z,61.40
2022-12-19T12:36:00.034Z,61.30
2022-12-19T12:38:43.414Z,61.50
2022-12-19T12:41:20.234Z,61.50
2022-12-19T12:44:04.197Z,61.40
2022-12-19T12:46:36.999Z,61.50
2022-12-19T12:49:05.534Z,61.50
2022-12-19T12:51:34.269Z,61.40
2022-12-19T12:54:09.479Z,61.40
2022-12-19T12:56:37.411Z,61.50
2022-12-19T12:59:08.229Z,61.20
2022-12-19T13:01:39.020Z,61.60
2022-12-19T13:04:18.718Z,61.40
2022-12-19T13:07:07.844Z,61.60
2022-12-19T13:09:36.896Z,61.30
2022-12-19T13:12:33.164Z,61.50
2022-12-19T13:15:20.830Z,61.50
2022-12-19T13:17:48.422Z,61.90
2022-12-19T13:20:20.224Z,61.90
2022-12-19T13:23:01.973Z,61.90
2022-12-19T13:25:38.610Z,62.10
2022-12-19T13:28:21.974Z,62.10
2022-12-19T13:31:20.586Z,61.80
2022-12-19T13:33:56.276Z,62.10
2022-12-19T13:39:48.417Z,62.40
2022-12-19T13:40:01.046Z,62.20
2022-12-19T13:42:43.414Z,62.40
2022-12-19T13:45:25.368Z,62.50
2022-12-19T13:47:57.453Z,62.50
2022-12-19T13:50:25.876Z,62.40
2022-12-19T13:52:54.702Z,62.60
2022-12-19T13:55:22.889Z,62.60
2022-12-19T14:00:51.944Z,62.60
2022-12-19T14:03:24.330Z,62.80
2022-12-19T14:06:16.421Z,62.80
2022-12-19T14:08:45.213Z,62.80
2022-12-19T14:11:33.469Z,62.90
2022-12-19T14:14:27.952Z,62.90
2022-12-19T14:16:56.938Z,62.90
2022-12-19T14:19:30.387Z,63.00
2022-12-19T14:22:15.641Z,63.00
2022-12-19T14:25:33.411Z,63.10
2022-12-19T14:28:19.305Z,63.10
2022-12-19T14:30:44.664Z,63.20
2022-12-19T14:33:46.858Z,63.20
2022-12-19T14:36:14.653Z,63.30
2022-12-19T14:39:27.629Z,63.30
2022-12-19T14:42:01.351Z,63.40
2022-12-19T14:52:53.686Z,63.40
2022-12-19T14:54:06.401Z,63.50
2022-12-19T14:54:07.607Z,63.50
2022-12-19T14:54:35.861Z,63.50
2022-12-19T14:59:03.591Z,63.60
2022-12-19T15:01:33.471Z,63.60
2022-12-19T15:04:51.621Z,63.80
2022-12-19T15:07:09.248Z,64.60
2022-12-19T15:11:04.818Z,63.90
2022-12-19T15:14:54.921Z,63.70
2022-12-19T15:16:04.496Z,63.80
2022-12-19T15:18:42.860Z,63.80
2022-12-19T15:21:13.520Z,64.00
2022-12-19T15:23:41.547Z,63.90
2022-12-19T15:26:14.245Z,64.00
2022-12-19T15:28:42.584Z,64.20
2022-12-19T15:31:25.739Z,64.10
2022-12-19T15:34:32.373Z,64.20
2022-12-19T15:36:40.851Z,64.30
2022-12-19T15:39:08.385Z,64.20
2022-12-19T15:41:36.834Z,64.30
2022-12-19T15:44:14.907Z,64.40
2022-12-19T15:46:48.924Z,64.40
2022-12-19T15:49:23.778Z,64.30
2022-12-19T15:51:51.798Z,64.60
2022-12-19T15:57:07.191Z,64.50
2022-12-19T15:59:41.964Z,64.50
2022-12-19T16:02:24.637Z,64.80
2022-12-19T16:04:56.908Z,64.80
2022-12-19T16:07:29.883Z,64.90
2022-12-19T16:09:57.448Z,65.10
2022-12-19T16:12:28.848Z,65.20
2022-12-19T16:14:58.924Z,65.30
2022-12-19T16:17:27.516Z,65.10
2022-12-19T16:19:55.368Z,65.20
2022-12-19T16:22:25.646Z,65.30
2022-12-19T16:24:53.841Z,65.50
2022-12-19T16:27:25.969Z,65.60
2022-12-19T16:29:55.089Z,65.90
2022-12-19T16:32:24.983Z,65.80
2022-12-19T16:34:53.163Z,66.00
2022-12-19T16:37:20.970Z,65.90
2022-12-19T16:39:48.531Z,66.00
2022-12-19T16:42:18.429Z,66.30
2022-12-19T16:44:48.327Z,66.60
2022-12-19T16:47:17.818Z,66.80
2022-12-19T16:49:45.493Z,66.80
2022-12-19T16:52:13.116Z,67.00
2022-12-19T16:54:40.754Z,67.10
2022-12-19T16:57:17.077Z,67.30
2022-12-19T16:59:44.716Z,67.30
2022-12-19T17:02:31.590Z,67.40
2022-12-19T17:04:59.263Z,67.60
2022-12-19T17:07:27.617Z,67.60
2022-12-19T17:09:55.093Z,67.30
2022-12-19T17:12:24.032Z,68.00
2022-12-19T17:14:51.856Z,67.70
2022-12-19T17:17:20.167Z,67.50
2022-12-19T17:19:48.691Z,67.60
2022-12-19T17:22:17.887Z,67.60
2022-12-19T17:24:47.582Z,67.50
2022-12-19T17:27:17.619Z,67.90
2022-12-19T17:29:47.361Z,67.50
2022-12-19T17:32:23.575Z,67.50
2022-12-19T17:34:53.390Z,67.20
2022-12-19T17:37:21.419Z,67.90
2022-12-19T17:39:48.920Z,67.80
2022-12-19T17:42:19.136Z,67.50
2022-12-19T17:44:46.620Z,67.60
2022-12-19T17:47:19.257Z,67.50
2022-12-19T17:49:47.524Z,67.80
2022-12-19T17:52:16.953Z,68.50
2022-12-19T17:54:45.571Z,68.60
2022-12-19T17:57:17.656Z,68.20
2022-12-19T17:59:46.957Z,69.00
2022-12-19T18:02:21.810Z,68.30
2022-12-19T18:04:49.864Z,68.80
2022-12-19T18:07:18.671Z,69.50
2022-12-19T18:09:46.376Z,69.10
2022-12-19T18:12:14.173Z,69.20
2022-12-19T18:14:42.317Z,69.60
2022-12-19T18:17:13.342Z,69.40
2022-12-19T18:19:40.891Z,69.30
2022-12-19T18:22:15.078Z,68.50
2022-12-19T18:24:42.650Z,69.20
2022-12-19T18:27:10.443Z,69.50
2022-12-19T18:29:38.780Z,69.30
2022-12-19T18:32:06.675Z,69.80
2022-12-19T18:34:36.079Z,70.20
2022-12-19T18:37:05.680Z,70.00
2022-12-19T18:39:35.128Z,70.40
2022-12-19T18:42:02.622Z,70.30
2022-12-19T18:44:30.942Z,69.90
2022-12-19T18:47:01.922Z,70.60
2022-12-19T18:49:29.516Z,71.80
2022-12-19T18:51:57.092Z,71.70
2022-12-19T18:54:25.762Z,71.10
2022-12-19T18:56:53.425Z,70.80
2022-12-19T18:59:20.960Z,71.30
2022-12-19T19:01:49.385Z,71.20
2022-12-19T19:04:18.221Z,71.00
2022-12-19T19:06:51.741Z,71.30
2022-12-19T19:09:20.827Z,71.00
2022-12-19T19:11:49.237Z,71.60
2022-12-19T19:14:17.047Z,72.10
2022-12-19T19:16:45.932Z,72.20
2022-12-19T19:19:16.452Z,72.00
2022-12-19T19:21:44.209Z,72.80
2022-12-19T19:24:15.256Z,72.60
2022-12-19T19:26:42.881Z,72.40
2022-12-19T19:29:10.517Z,71.90
2022-12-19T19:31:39.811Z,71.80
2022-12-19T19:34:11.433Z,71.60
2022-12-19T19:36:41.608Z,71.10
2022-12-19T19:39:09.152Z,72.40
2022-12-19T19:41:37.225Z,71.60
2022-12-19T19:44:06.275Z,72.00
2022-12-19T19:46:34.482Z,72.10
2022-12-19T19:49:02.912Z,71.80
2022-12-19T19:51:30.592Z,72.40
2022-12-19T19:53:58.417Z,72.50
2022-12-19T19:56:26.746Z,72.90
2022-12-19T19:58:55.728Z,73.40
2022-12-19T20:01:24.192Z,72.50
2022-12-19T20:03:54.350Z,72.60
2022-12-19T20:06:22.135Z,71.90
2022-12-19T20:08:49.833Z,71.60
2022-12-19T20:11:17.417Z,72.30
2022-12-19T20:13:45.791Z,72.90
2022-12-19T20:16:16.151Z,72.40
2022-12-19T20:18:48.214Z,73.00
2022-12-19T20:21:15.831Z,71.80
2022-12-19T20:23:44.745Z,72.50
2022-12-19T20:26:14.703Z,72.70
2022-12-19T20:28:48.190Z,76.00
2022-12-19T20:31:22.007Z,75.20
2022-12-19T20:33:50.776Z,74.60
2022-12-19T20:36:18.361Z,74.70
2022-12-19T20:38:46.653Z,74.90
2022-12-19T20:41:14.425Z,75.30
2022-12-19T20:43:43.186Z,76.00
2022-12-19T20:46:16.032Z,75.60
2022-12-19T20:48:44.125Z,76.70
2022-12-19T20:51:12.557Z,76.20
2022-12-19T20:53:41.639Z,76.70
2022-12-19T20:56:09.899Z,75.80
2022-12-19T20:58:38.397Z,75.30
2022-12-19T21:01:12.085Z,74.80
2022-12-19T21:03:40.939Z,74.70
2022-12-19T21:06:09.611Z,75.00
2022-12-19T21:08:37.614Z,73.50
2022-12-19T21:11:05.906Z,74.50
2022-12-19T21:13:34.614Z,74.20
2022-12-19T21:16:03.627Z,74.10
2022-12-19T21:18:32.148Z,74.50
2022-12-19T21:21:01.262Z,75.20
2022-12-19T21:23:29.116Z,74.30
2022-12-19T21:26:01.087Z,74.00
2022-12-19T21:28:28.904Z,74.80
2022-12-19T21:31:04.860Z,74.60
2022-12-19T21:33:33.248Z,74.40
2022-12-19T21:36:11.634Z,74.60
2022-12-19T21:38:39.173Z,73.70
2022-12-19T21:41:07.626Z,73.70
2022-12-19T21:43:36.967Z,75.60
2022-12-19T21:46:09.269Z,74.30
2022-12-19T21:48:37.929Z,74.70
2022-12-19T21:51:05.583Z,74.30
2022-12-19T21:53:33.513Z,74.40
2022-12-19T21:56:27.696Z,73.90
2022-12-19T21:58:57.652Z,74.60
2022-12-19T22:01:25.817Z,74.00
2022-12-19T22:03:53.792Z,75.70
2022-12-19T22:06:28.190Z,74.40
2022-12-19T22:08:57.281Z,73.40
2022-12-19T22:11:25.333Z,74.30
2022-12-19T22:13:53.951Z,74.60
2022-12-19T22:16:21.751Z,73.50
2022-12-19T22:18:52.282Z,75.00
2022-12-19T22:21:20.515Z,75.70
2022-12-19T22:23:48.037Z,75.30
2022-12-19T22:26:20.425Z,74.80
2022-12-19T22:28:50.060Z,75.30
2022-12-19T22:31:18.452Z,75.60
2022-12-19T22:33:46.506Z,74.20
2022-12-19T22:36:15.615Z,75.10
2022-12-19T22:38:45.322Z,76.00
2022-12-19T22:41:13.698Z,75.70
2022-12-19T22:43:41.471Z,76.10
2022-12-19T22:46:29.949Z,75.60
2022-12-19T22:48:59.612Z,74.40
2022-12-19T22:51:28.042Z,74.60
2022-12-19T22:53:57.759Z,74.40
2022-12-19T22:56:27.879Z,73.80
2022-12-19T22:58:57.063Z,74.20
2022-12-19T23:01:25.858Z,75.40
2022-12-19T23:03:55.631Z,75.10
2022-12-19T23:06:24.269Z,74.80
2022-12-19T23:08:53.545Z,75.60
2022-12-19T23:11:23.461Z,74.80
2022-12-19T23:13:50.999Z,76.20
2022-12-19T23:16:19.200Z,76.40
2022-12-19T23:18:46.727Z,75.70
2022-12-19T23:21:16.244Z,76.20
2022-12-19T23:23:44.604Z,76.60
2022-12-19T23:26:15.929Z,76.80
2022-12-19T23:28:44.952Z,78.00
2022-12-19T23:31:13.511Z,78.20
2022-12-19T23:33:41.026Z,76.90
2022-12-19T23:36:09.454Z,77.20
2022-12-19T23:38:37.674Z,77.30
2022-12-19T23:41:09.351Z,78.80
2022-12-19T23:43:37.494Z,78.90
2022-12-19T23:46:14.700Z,78.80
2022-12-19T23:48:42.726Z,77.80
2022-12-19T23:51:18.215Z,77.00
2022-12-19T23:53:47.022Z,77.20
2022-12-19T23:56:21.913Z,77.80
2022-12-19T23:58:49.606Z,78.60
